Time;durP1;ratioP1;P1;durP2;ratioP2;P2;SDS_P1;SDS_P2;PMS_P1;PMS_P2;Temp;Humidity;BMP_temperature;BMP_pressure;BME280_temperature;BME280_humidity;BME280_pressure;Samples;Min_cycle;Max_cycle;Signal;HPM_P1;HPM_P2
2023/09/02 00:01:36;;;;;;;23.38;16.27;;;;;;;16.88;100.00;101432.09;4900633;29;20052;-91
2023/09/02 00:07:52;;;;;;;24.38;16.13;;;;;;;16.96;100.00;101420.78;4899503;29;20114;-90
2023/09/02 00:10:27;;;;;;;21.52;16.10;;;;;;;16.96;100.00;101425.41;4889536;29;20059;-90
2023/09/02 00:12:56;;;;;;;24.95;17.45;;;;;;;16.98;100.00;101424.09;4907222;29;20059;-91
2023/09/02 00:15:24;;;;;;;24.85;17.38;;;;;;;16.99;100.00;101419.44;4922641;29;20047;-90
2023/09/02 00:17:52;;;;;;;25.47;18.10;;;;;;;17.01;100.00;101431.00;4921918;29;20486;-91
2023/09/02 00:20:18;;;;;;;25.45;18.35;;;;;;;17.07;100.00;101430.00;4921731;29;20032;-90
2023/09/02 00:22:50;;;;;;;26.00;18.17;;;;;;;17.04;100.00;101418.69;4921632;29;20024;-92
2023/09/02 00:25:16;;;;;;;24.42;16.77;;;;;;;17.05;100.00;101428.59;4922185;29;20071;-90
2023/09/02 00:27:42;;;;;;;26.98;18.10;;;;;;;17.07;100.00;101427.28;4922532;29;20035;-91
2023/09/02 00:30:08;;;;;;;25.23;16.37;;;;;;;17.03;100.00;101428.00;4921568;29;20091;-91
2023/09/02 00:32:34;;;;;;;23.50;16.73;;;;;;;17.08;100.00;101434.44;4921870;29;20032;-90
2023/09/02 00:34:59;;;;;;;25.17;16.53;;;;;;;17.09;100.00;101427.84;4921681;29;20050;-90
2023/09/02 00:37:30;;;;;;;23.37;16.83;;;;;;;17.09;100.00;101441.56;4923081;29;20472;-91
2023/09/02 00:39:56;;;;;;;21.20;16.10;;;;;;;17.13;100.00;101441.91;4921680;29;20456;-91
2023/09/02 00:42:28;;;;;;;23.77;17.70;;;;;;;17.19;100.00;101449.16;4921913;29;20465;-91
2023/09/02 00:44:54;;;;;;;23.25;16.75;;;;;;;17.19;100.00;101447.22;4921906;29;20048;-91
2023/09/02 00:47:25;;;;;;;23.87;17.93;;;;;;;17.16;100.00;101447.72;4923402;29;20391;-92
2023/09/02 00:49:50;;;;;;;23.63;17.27;;;;;;;17.22;100.00;101440.44;4935072;29;20023;-92
2023/09/02 00:52:19;;;;;;;24.30;17.03;;;;;;;17.20;100.00;101445.34;4938710;29;20057;-92
2023/09/02 00:54:47;;;;;;;22.77;17.60;;;;;;;17.16;100.00;101444.16;4941666;29;20028;-92
2023/09/02 00:57:13;;;;;;;24.92;17.70;;;;;;;17.14;100.00;101441.66;4921011;29;20036;-90
2023/09/02 00:59:39;;;;;;;24.97;17.63;;;;;;;17.14;100.00;101443.56;4932865;29;20051;-91
2023/09/02 01:02:05;;;;;;;25.92;17.02;;;;;;;17.19;100.00;101439.00;4932364;29;20384;-90
2023/09/02 01:04:32;;;;;;;25.80;18.55;;;;;;;17.19;100.00;101443.66;4931439;29;20099;-90
2023/09/02 01:07:03;;;;;;;23.23;17.07;;;;;;;17.22;100.00;101442.34;4948351;29;20137;-91
2023/09/02 01:09:30;;;;;;;25.55;18.13;;;;;;;17.14;100.00;101438.94;4923653;29;20036;-91
2023/09/02 01:11:59;;;;;;;28.88;18.95;;;;;;;17.07;100.00;101446.47;4938223;29;20027;-90
2023/09/02 01:14:24;;;;;;;27.33;18.42;;;;;;;17.05;100.00;101442.28;4921764;29;20027;-90
2023/09/02 01:16:52;;;;;;;26.47;18.13;;;;;;;17.03;100.00;101441.72;4921923;29;20087;-90
2023/09/02 01:19:18;;;;;;;26.70;18.92;;;;;;;17.08;100.00;101450.03;4938996;29;20031;-90
2023/09/02 01:22:00;;;;;;;27.48;18.98;;;;;;;17.10;100.00;101447.88;4905681;29;20432;-90
2023/09/02 01:24:48;;;;;;;24.88;18.33;;;;;;;17.07;100.00;101445.63;4921191;29;20104;-90
2023/09/02 01:27:24;;;;;;;24.07;18.13;;;;;;;17.06;100.00;101455.75;4912189;29;20044;-90
2023/09/02 01:30:23;;;;;;;24.80;18.35;;;;;;;17.04;100.00;101448.84;4921373;29;20024;-91
2023/09/02 01:32:53;;;;;;;26.08;17.65;;;;;;;17.04;100.00;101444.22;4937785;29;20083;-91
2023/09/02 01:35:24;;;;;;;29.30;18.80;;;;;;;17.10;100.00;101447.88;4920867;29;20036;-91
2023/09/02 01:37:55;;;;;;;28.60;18.77;;;;;;;17.08;100.00;101453.63;4921052;29;20028;-91
2023/09/02 01:40:26;;;;;;;29.40;18.70;;;;;;;17.09;100.00;101449.78;4920640;29;20458;-91
2023/09/02 01:42:58;;;;;;;27.50;18.92;;;;;;;17.11;100.00;101465.97;4921578;29;20122;-91
2023/09/02 01:45:33;;;;;;;26.00;18.45;;;;;;;17.05;100.00;101451.38;4920628;29;20106;-90
2023/09/02 01:48:02;;;;;;;25.77;17.38;;;;;;;17.06;100.00;101463.97;4921000;29;20487;-91
2023/09/02 01:50:38;;;;;;;26.42;18.58;;;;;;;17.09;100.00;101468.97;4920236;29;20042;-91
2023/09/02 01:53:04;;;;;;;25.73;17.57;;;;;;;17.11;100.00;101469.56;4920470;29;20480;-91
2023/09/02 01:55:30;;;;;;;27.77;18.42;;;;;;;17.13;100.00;101470.16;4920467;29;20027;-90
2023/09/02 01:58:04;;;;;;;22.08;16.48;;;;;;;17.11;100.00;101474.22;4920298;29;20023;-91
2023/09/02 02:00:32;;;;;;;23.60;17.08;;;;;;;17.08;100.00;101475.56;4920565;29;20043;-90
2023/09/02 02:02:59;;;;;;;24.58;16.85;;;;;;;17.11;100.00;101475.06;4905365;29;20063;-90
2023/09/02 02:05:39;;;;;;;23.67;16.27;;;;;;;17.09;100.00;101465.41;4919798;29;20079;-90
2023/09/02 02:08:13;;;;;;;23.38;16.83;;;;;;;17.09;100.00;101473.63;4921005;29;20046;-91
2023/09/02 02:10:41;;;;;;;19.85;15.70;;;;;;;17.05;100.00;101475.19;4920568;29;20042;-91
2023/09/02 02:13:09;;;;;;;25.90;16.85;;;;;;;17.04;100.00;101473.50;4919916;29;20031;-91
2023/09/02 02:15:34;;;;;;;22.38;16.27;;;;;;;16.91;100.00;101478.22;4937136;29;20032;-90
2023/09/02 02:18:00;;;;;;;21.57;16.40;;;;;;;16.94;100.00;101476.91;4920047;29;20094;-91
2023/09/02 02:20:39;;;;;;;26.37;17.20;;;;;;;16.93;100.00;101477.97;4919509;29;20032;-90
2023/09/02 02:23:05;;;;;;;22.42;16.33;;;;;;;16.95;100.00;101473.09;4920192;29;20432;-90
2023/09/02 02:25:31;;;;;;;24.05;16.15;;;;;;;16.98;100.00;101472.59;4919788;29;20106;-90
2023/09/02 02:27:57;;;;;;;25.70;16.45;;;;;;;16.97;100.00;101479.16;4919912;29;20074;-90
2023/09/02 02:30:22;;;;;;;24.27;16.03;;;;;;;16.89;100.00;101485.84;4919594;29;20067;-90
2023/09/02 02:32:50;;;;;;;22.27;15.37;;;;;;;16.85;100.00;101484.63;4919657;29;20086;-90
2023/09/02 02:35:24;;;;;;;21.38;14.57;;;;;;;16.84;100.00;101488.44;4919778;29;20031;-90
2023/09/02 02:37:52;;;;;;;20.35;15.02;;;;;;;16.86;100.00;101489.06;4920082;29;20395;-90
2023/09/02 02:40:22;;;;;;;25.77;15.50;;;;;;;16.88;100.00;101499.81;4904035;29;20036;-91
2023/09/02 02:42:48;;;;;;;20.63;14.60;;;;;;;16.87;100.00;101495.34;4903888;29;20539;-90
2023/09/02 02:45:13;;;;;;;18.90;14.60;;;;;;;16.91;100.00;101497.41;4919924;29;20027;-90
2023/09/02 02:47:39;;;;;;;19.20;14.07;;;;;;;16.85;100.00;101495.59;4920413;29;20343;-90
2023/09/02 02:50:07;;;;;;;22.97;14.40;;;;;;;16.84;100.00;101492.03;4919320;29;20032;-89
2023/09/02 02:52:32;;;;;;;18.98;13.52;;;;;;;16.80;100.00;101484.50;4904569;29;20385;-90
2023/09/02 02:55:00;;;;;;;19.00;12.93;;;;;;;16.73;100.00;101492.06;4919517;29;20032;-90
2023/09/02 02:57:26;;;;;;;18.33;12.43;;;;;;;16.75;100.00;101487.16;4919172;29;20055;-90
2023/09/02 02:59:51;;;;;;;19.23;13.18;;;;;;;16.80;100.00;101499.06;4919394;29;20114;-89
2023/09/02 03:02:19;;;;;;;19.80;13.60;;;;;;;16.78;100.00;101495.72;4920384;29;20031;-89
2023/09/02 03:04:50;;;;;;;17.65;12.98;;;;;;;16.80;100.00;101493.59;4919366;29;20028;-90
2023/09/02 03:07:20;;;;;;;17.13;12.70;;;;;;;16.78;100.00;101492.97;4904799;29;20487;-89
2023/09/02 03:09:47;;;;;;;21.17;12.80;;;;;;;16.75;100.00;101496.19;4904138;29;20404;-89
2023/09/02 03:12:12;;;;;;;16.77;11.52;;;;;;;16.78;100.00;101484.75;4918990;29;20028;-90
2023/09/02 03:14:46;;;;;;;16.00;12.03;;;;;;;16.74;100.00;101480.84;4919362;29;20038;-90
2023/09/02 03:17:12;;;;;;;16.95;11.88;;;;;;;16.66;100.00;101481.22;4904804;29;20490;-90
2023/09/02 03:19:41;;;;;;;19.43;11.73;;;;;;;16.67;100.00;101488.38;4920014;29;20111;-90
2023/09/02 03:22:06;;;;;;;16.02;11.55;;;;;;;16.63;100.00;101496.22;4919556;29;20444;-90
2023/09/02 03:24:34;;;;;;;21.77;11.70;;;;;;;16.63;100.00;101492.66;4919017;29;20087;-90
2023/09/02 03:27:00;;;;;;;17.10;12.18;;;;;;;16.59;100.00;101485.97;4903524;29;20474;-90
2023/09/02 03:29:28;;;;;;;17.80;12.50;;;;;;;16.59;100.00;101485.97;4919057;29;20111;-90
2023/09/02 03:31:54;;;;;;;19.23;12.07;;;;;;;16.61;100.00;101489.34;4922497;29;20043;-91
2023/09/02 03:34:22;;;;;;;17.27;12.13;;;;;;;16.62;100.00;101483.63;4922891;29;20032;-90
2023/09/02 03:36:50;;;;;;;15.40;11.07;;;;;;;16.56;100.00;101491.94;4907112;29;20556;-90
2023/09/02 03:39:18;;;;;;;19.05;11.93;;;;;;;16.56;100.00;101495.50;4907508;29;20028;-90
2023/09/02 03:42:06;;;;;;;20.35;12.52;;;;;;;16.61;100.00;101500.28;4922722;29;20031;-90
2023/09/02 03:44:32;;;;;;;15.90;11.48;;;;;;;16.69;100.00;101507.31;4919850;29;20044;-90
2023/09/02 03:46:57;;;;;;;16.43;12.00;;;;;;;16.67;100.00;101507.56;4922308;29;20087;-90
2023/09/02 03:49:25;;;;;;;21.70;11.63;;;;;;;16.72;100.00;101515.03;4939792;29;20035;-90
2023/09/02 03:51:50;;;;;;;15.90;11.88;;;;;;;16.67;100.00;101516.59;4922344;29;20109;-90
2023/09/02 03:54:16;;;;;;;24.00;12.95;;;;;;;16.71;100.00;101508.75;4922427;29;20023;-90
2023/09/02 03:56:44;;;;;;;17.17;10.97;;;;;;;16.73;100.00;101514.81;4921830;29;20038;-90
2023/09/02 03:59:19;;;;;;;15.55;11.13;;;;;;;16.73;100.00;101516.72;4922553;29;20027;-90
2023/09/02 04:01:44;;;;;;;14.65;9.73;;;;;;;16.67;100.00;101511.09;4939995;29;20024;-90
2023/09/02 04:04:10;;;;;;;14.30;9.60;;;;;;;16.69;100.00;101513.59;4922468;29;20028;-90
2023/09/02 04:06:35;;;;;;;11.97;8.57;;;;;;;16.67;100.00;101504.81;4937835;29;20034;-90
2023/09/02 04:09:01;;;;;;;13.47;8.97;;;;;;;16.67;100.00;101511.09;4922346;29;20087;-90
2023/09/02 04:11:26;;;;;;;14.85;8.73;;;;;;;16.60;100.00;101512.31;4922901;29;20038;-90
2023/09/02 04:13:57;;;;;;;12.00;8.30;;;;;;;16.56;100.00;101514.69;4922151;29;20384;-90
2023/09/02 04:16:26;;;;;;;9.93;7.90;;;;;;;16.54;100.00;101516.03;4922431;29;20106;-90
2023/09/02 04:18:56;;;;;;;11.98;7.90;;;;;;;16.54;100.00;101516.84;4921909;29;20051;-90
2023/09/02 04:21:27;;;;;;;12.73;7.77;;;;;;;16.54;100.00;101513.28;4922118;29;20032;-90
2023/09/02 04:23:52;;;;;;;11.45;7.40;;;;;;;16.56;100.00;101517.41;4921997;29;20560;-90
2023/09/02 04:26:19;;;;;;;15.05;7.50;;;;;;;16.51;100.00;101519.25;4921567;29;20135;-90
2023/09/02 04:28:47;;;;;;;11.00;7.10;;;;;;;16.44;100.00;101516.59;4921696;29;20028;-90
2023/09/02 04:31:13;;;;;;;14.75;6.88;;;;;;;16.45;100.00;101519.09;4921604;29;20034;-90
2023/09/02 04:33:39;;;;;;;9.70;7.32;;;;;;;16.45;100.00;101524.59;4921779;29;20135;-90
2023/09/02 04:36:05;;;;;;;12.82;7.45;;;;;;;16.43;100.00;101525.88;4921608;29;20055;-90
2023/09/02 04:38:31;;;;;;;12.40;6.43;;;;;;;16.48;100.00;101526.03;4922364;29;20019;-89
2023/09/02 04:41:01;;;;;;;12.10;7.20;;;;;;;16.49;100.00;101531.25;4938768;29;20365;-90
2023/09/02 04:43:26;;;;;;;12.48;6.95;;;;;;;16.55;100.00;101534.09;4921094;29;20039;-90
2023/09/02 04:45:57;;;;;;;11.70;7.13;;;;;;;16.54;100.00;101532.44;4921313;29;20468;-89
2023/09/02 04:48:23;;;;;;;12.35;7.30;;;;;;;16.58;100.00;101529.00;4906835;29;20539;-90
2023/09/02 04:50:55;;;;;;;15.07;7.37;;;;;;;16.59;100.00;101536.13;4921529;29;20082;-90
2023/09/02 04:53:21;;;;;;;17.25;8.07;;;;;;;16.65;100.00;101532.44;4938102;29;20042;-90
2023/09/02 04:55:50;;;;;;;14.32;7.47;;;;;;;16.65;100.00;101540.66;4937037;29;20039;-89
2023/09/02 04:58:20;;;;;;;17.10;7.60;;;;;;;16.64;100.00;101529.94;4937511;29;20051;-89
2023/09/02 05:00:48;;;;;;;13.80;7.30;;;;;;;16.65;100.00;101537.06;4905956;29;20036;-89
2023/09/02 05:03:13;;;;;;;15.17;7.30;;;;;;;16.57;100.00;101537.44;4920972;29;20044;-89
2023/09/02 05:05:40;;;;;;;9.05;6.68;;;;;;;16.52;100.00;101534.59;4921723;29;20035;-90
2023/09/02 05:08:08;;;;;;;10.18;7.10;;;;;;;16.50;100.00;101540.28;4938149;29;20031;-89
2023/09/02 05:10:34;;;;;;;13.53;7.43;;;;;;;16.42;100.00;101538.75;4921741;29;20047;-89
2023/09/02 05:12:59;;;;;;;11.95;6.90;;;;;;;16.43;100.00;101539.56;4937827;29;20024;-90
2023/09/02 05:15:25;;;;;;;10.27;6.93;;;;;;;16.41;100.00;101544.47;4905215;29;20123;-89
2023/09/02 05:17:51;;;;;;;10.77;6.90;;;;;;;16.42;100.00;101554.38;4920950;29;20035;-90
2023/09/02 05:20:16;;;;;;;12.13;7.40;;;;;;;16.52;100.00;101567.44;4921071;29;20503;-90
2023/09/02 05:22:51;;;;;;;12.93;7.20;;;;;;;16.47;100.00;101563.50;4920634;29;20090;-91
2023/09/02 05:25:17;;;;;;;10.27;7.07;;;;;;;16.43;100.00;101561.50;4920634;29;20130;-90
2023/09/02 05:27:42;;;;;;;13.40;7.13;;;;;;;16.34;100.00;101560.19;4920783;29;20476;-91
2023/09/02 05:30:13;;;;;;;11.10;6.87;;;;;;;16.33;100.00;101570.31;4889424;29;20036;-91
2023/09/02 05:32:41;;;;;;;11.55;6.60;;;;;;;16.34;100.00;101580.16;4920605;29;20396;-91
2023/09/02 05:35:31;;;;;;;11.60;7.10;;;;;;;16.35;100.00;101576.38;4921933;29;20039;-92
2023/09/02 05:38:54;;;;;;;14.07;6.97;;;;;;;16.34;100.00;101588.38;4907712;29;20036;-91
2023/09/02 06:03:34;;;;;;;10.38;7.13;;;;;;;16.99;100.00;101592.97;5354861;23;20071;-95
2023/09/02 06:06:55;;;;;;;;;;;;;;;;;;;;;
2023/09/02 06:10:19;;;;;;;;;;;;;;;;;;;;;
2023/09/02 06:34:23;;;;;;;;;;;;;;;;;;;;;
2023/09/02 06:44:25;;;;;;;;;;;;;;;;;;;;;
2023/09/02 06:54:47;;;;;;;;;;;;;;;;;;;;;
2023/09/02 07:47:24;;;;;;;12.63;8.15;;;;;;;19.86;100.00;101737.56;5428021;23;19922;-96
2023/09/02 09:09:25;;;;;;;;;;;;;;;;;;;;;
2023/09/02 09:22:53;;;;;;;;;;;;;;;;;;;;;
2023/09/02 09:25:59;;;;;;;;;;;;;;;;;;;;;
2023/09/02 09:28:52;;;;;;;16.88;13.60;;;;;;;24.30;99.99;101808.09;4789754;29;20047;-93
2023/09/02 09:31:30;;;;;;;15.50;13.90;;;;;;;24.48;98.83;101799.13;4807147;29;20050;-92
2023/09/02 09:34:48;;;;;;;16.40;14.73;;;;;;;24.66;100.00;101810.72;4807460;29;20031;-93
2023/09/02 09:37:24;;;;;;;16.52;14.82;;;;;;;24.81;95.04;101824.47;4792767;29;20035;-92
2023/09/02 09:40:07;;;;;;;;;;;;;;;;;;;;;
2023/09/02 09:42:45;;;;;;;16.05;14.30;;;;;;;25.16;93.07;101836.41;4793162;29;20049;-93
2023/09/02 11:50:24;;;;;;;;;;;;;;;;;;;;;
2023/09/02 11:52:58;;;;;;;19.40;17.30;;;;;;;29.26;68.42;101918.47;4770465;30;20048;-90
2023/09/02 11:55:28;;;;;;;18.77;16.83;;;;;;;29.17;66.05;101920.38;4786584;29;20101;-90
2023/09/02 11:58:14;;;;;;;19.13;16.80;;;;;;;29.10;66.77;101909.66;4757602;30;20164;-89
2023/09/02 12:00:45;;;;;;;18.13;16.23;;;;;;;28.92;65.87;101922.63;4771566;30;20477;-90
2023/09/02 12:03:27;;;;;;;19.23;17.20;;;;;;;28.83;68.02;101916.97;4772982;30;20035;-90
2023/09/02 12:06:01;;;;;;;18.95;17.05;;;;;;;28.90;66.64;101924.09;4771960;30;20032;-91
2023/09/02 12:08:30;;;;;;;20.67;17.27;;;;;;;28.76;66.78;101926.91;4786691;29;20032;-91
2023/09/02 12:11:02;;;;;;;18.15;16.27;;;;;;;28.94;67.39;101936.28;4771507;30;20067;-91
2023/09/02 12:13:31;;;;;;;18.23;16.50;;;;;;;29.35;65.11;101940.91;4786313;29;20042;-90
2023/09/02 12:16:02;;;;;;;17.80;16.13;;;;;;;29.52;64.72;101943.84;4786942;29;20042;-90
2023/09/02 12:18:30;;;;;;;18.25;16.45;;;;;;;29.76;63.64;101945.47;4786379;29;20572;-89
2023/09/02 12:20:58;;;;;;;18.35;16.45;;;;;;;29.62;62.84;101948.34;4771867;30;20048;-90
2023/09/02 12:23:24;;;;;;;19.38;17.38;;;;;;;29.33;63.21;101940.41;4771560;30;20063;-90
2023/09/02 12:26:22;;;;;;;18.77;16.77;;;;;;;29.75;66.43;101941.84;4770947;30;20141;-90
2023/09/02 12:29:03;;;;;;;17.70;15.93;;;;;;;29.95;59.91;101944.44;4732854;30;20043;-90
2023/09/02 12:31:28;;;;;;;16.13;14.52;;;;;;;29.93;60.51;101936.38;4772415;30;20040;-91
2023/09/02 12:33:56;;;;;;;16.27;14.67;;;;;;;30.10;60.02;101938.41;4755821;30;20382;-91
2023/09/02 12:36:35;;;;;;;17.00;15.25;;;;;;;30.15;61.93;101949.47;4786187;29;20039;-90
2023/09/02 12:39:01;;;;;;;17.17;15.48;;;;;;;30.07;59.41;101947.47;4785905;29;20035;-91
2023/09/02 12:41:39;;;;;;;16.10;14.60;;;;;;;29.75;61.97;101943.81;4772258;30;20477;-91
2023/09/02 12:44:12;;;;;;;16.88;15.27;;;;;;;29.39;62.47;101951.16;4787101;29;20043;-92
2023/09/02 12:46:40;;;;;;;17.77;15.80;;;;;;;29.72;60.77;101953.69;4771147;30;20047;-91
2023/09/02 12:49:06;;;;;;;16.73;15.13;;;;;;;30.42;57.68;101956.03;4770826;30;20040;-91
2023/09/02 12:51:39;;;;;;;17.20;15.60;;;;;;;30.33;58.53;101961.56;4785891;29;20075;-91
2023/09/02 12:54:15;;;;;;;15.60;13.70;;;;;;;30.25;59.23;101966.00;4785954;29;20031;-91
2023/09/02 12:56:41;;;;;;;17.25;15.45;;;;;;;29.52;57.97;101965.38;4770865;30;20051;-90
2023/09/02 12:59:14;;;;;;;16.08;14.48;;;;;;;29.19;61.21;101971.19;4770738;30;20050;-91
2023/09/02 13:01:42;;;;;;;17.07;15.30;;;;;;;29.08;60.53;101966.97;4756533;30;20040;-90
2023/09/02 13:04:13;;;;;;;16.42;14.93;;;;;;;28.97;61.47;101963.59;4770205;30;20177;-90
2023/09/02 13:06:41;;;;;;;15.95;14.35;;;;;;;28.97;59.91;101961.63;4785386;29;20505;-91
2023/09/02 13:09:12;;;;;;;16.33;14.80;;;;;;;28.74;61.49;101969.09;4756059;30;20040;-91
2023/09/02 13:11:44;;;;;;;16.13;14.63;;;;;;;28.45;62.63;101964.66;4772423;30;20031;-92
2023/09/02 13:14:14;;;;;;;17.03;14.83;;;;;;;28.29;62.66;101957.75;4742163;30;20047;-91
2023/09/02 13:16:42;;;;;;;18.30;15.75;;;;;;;28.24;62.71;101967.00;4770773;30;20048;-91
2023/09/02 13:19:14;;;;;;;17.10;14.45;;;;;;;28.25;63.69;101971.47;4772055;30;20036;-90
2023/09/02 13:21:45;;;;;;;16.52;14.90;;;;;;;28.29;63.58;101974.47;4770305;30;20028;-91
2023/09/02 13:24:39;;;;;;;17.58;15.77;;;;;;;28.30;64.99;101978.91;4785151;30;20519;-91
2023/09/02 13:27:08;;;;;;;17.53;15.73;;;;;;;27.76;65.12;101979.31;4785347;29;20050;-91
2023/09/02 13:29:36;;;;;;;18.17;16.27;;;;;;;27.47;66.34;101988.72;4770359;30;20036;-90
2023/09/02 13:32:31;;;;;;;19.30;16.80;;;;;;;27.46;67.80;101994.56;4755262;30;20063;-91
2023/09/02 13:35:20;;;;;;;18.25;16.35;;;;;;;27.18;69.54;101990.78;4778993;29;20044;-90
2023/09/02 13:37:50;;;;;;;19.27;16.25;;;;;;;26.99;68.80;101993.56;4770231;30;20250;-90
2023/09/02 13:40:16;;;;;;;17.97;16.07;;;;;;;27.01;68.07;101991.31;4771312;30;20077;-90
2023/09/02 13:42:53;;;;;;;18.20;16.25;;;;;;;27.00;67.79;101993.25;4784260;29;20048;-90
2023/09/02 13:45:33;;;;;;;19.43;15.93;;;;;;;27.53;67.37;101989.44;4757513;30;20130;-90
2023/09/02 13:47:59;;;;;;;17.50;15.30;;;;;;;28.09;64.75;101984.06;4771313;30;20027;-89
2023/09/02 13:50:25;;;;;;;16.60;14.85;;;;;;;28.38;62.88;101981.00;4754923;30;20481;-90
2023/09/02 13:52:59;;;;;;;16.17;14.47;;;;;;;28.51;63.66;101977.38;4769046;30;20118;-90
2023/09/02 13:55:43;;;;;;;16.90;15.15;;;;;;;28.76;63.86;101980.81;4770184;30;20043;-90
2023/09/02 13:58:24;;;;;;;17.60;15.70;;;;;;;28.56;63.20;101970.84;4769928;30;20032;-90
2023/09/02 14:00:54;;;;;;;15.93;14.23;;;;;;;28.68;62.32;101973.16;4784823;29;20139;-91
2023/09/02 14:03:24;;;;;;;16.13;14.07;;;;;;;29.10;60.41;101976.69;4755066;30;20047;-90
2023/09/02 14:05:57;;;;;;;14.63;13.13;;;;;;;29.91;59.21;101973.06;4769474;30;20031;-90
2023/09/02 14:08:46;;;;;;;15.45;13.82;;;;;;;31.05;57.02;101976.28;4769915;30;20035;-90
2023/09/02 14:11:16;;;;;;;15.52;13.50;;;;;;;32.10;51.55;101981.75;4784766;30;20189;-90
2023/09/02 14:13:42;;;;;;;14.18;12.77;;;;;;;33.30;48.58;101974.16;4784555;29;20132;-91
2023/09/02 14:16:11;;;;;;;15.37;13.57;;;;;;;33.57;47.31;101983.16;4768791;30;20109;-91
2023/09/02 14:18:46;;;;;;;15.85;14.25;;;;;;;33.08;47.84;101985.72;4755569;30;20040;-91
2023/09/02 14:21:14;;;;;;;16.02;14.32;;;;;;;32.26;49.86;101984.88;4743118;30;20561;-91
2023/09/02 14:23:43;;;;;;;15.98;14.32;;;;;;;31.26;51.83;101978.44;4754585;30;20177;-91
2023/09/02 14:26:14;;;;;;;15.63;13.87;;;;;;;30.60;54.20;101971.72;4755578;30;20048;-90
2023/09/02 14:28:42;;;;;;;16.00;14.38;;;;;;;29.89;55.94;101958.56;4768881;30;20578;-90
2023/09/02 14:31:08;;;;;;;15.95;14.27;;;;;;;29.42;58.00;101958.06;4769200;30;20465;-90
2023/09/02 14:33:35;;;;;;;14.07;12.67;;;;;;;29.33;57.46;101962.78;4740377;30;20139;-90
2023/09/02 14:36:06;;;;;;;15.70;14.10;;;;;;;29.29;57.09;101956.16;4769336;30;20051;-90
2023/09/02 14:38:34;;;;;;;15.10;12.93;;;;;;;29.55;56.92;101959.16;4754865;30;20031;-90
2023/09/02 14:41:00;;;;;;;16.30;14.48;;;;;;;29.67;56.59;101948.19;4784252;29;20035;-90
2023/09/02 14:43:47;;;;;;;15.87;14.17;;;;;;;29.87;56.60;101957.25;4784111;29;20036;-90
2023/09/02 14:46:23;;;;;;;15.77;14.02;;;;;;;31.54;52.89;101958.47;4783927;29;20455;-90
2023/09/02 14:48:48;;;;;;;14.80;13.30;;;;;;;32.33;49.86;101965.53;4740629;30;20039;-90
2023/09/02 14:51:17;;;;;;;13.33;11.93;;;;;;;32.41;49.21;101961.00;4768657;30;20495;-91
2023/09/02 14:53:47;;;;;;;14.77;13.18;;;;;;;32.21;49.69;101975.81;4784010;29;20089;-91
2023/09/02 14:56:17;;;;;;;16.85;15.25;;;;;;;31.75;50.19;101981.84;4754783;30;20485;-90
2023/09/02 14:58:47;;;;;;;15.55;13.93;;;;;;;32.05;51.31;101969.91;4784083;30;20040;-90
2023/09/02 15:01:17;;;;;;;15.07;13.60;;;;;;;34.79;45.57;101964.81;4740047;30;20441;-90
2023/09/02 15:06:36;;;;;;;13.50;12.18;;;;;;;39.55;34.38;101965.50;4769217;30;20520;-90
2023/09/02 15:09:31;;;;;;;12.82;11.63;;;;;;;40.04;34.49;101967.25;4754704;30;20075;-90
2023/09/02 15:12:02;;;;;;;12.07;10.88;;;;;;;38.59;33.19;101961.84;4769071;30;20102;-90
2023/09/02 15:14:33;;;;;;;13.60;12.30;;;;;;;36.74;36.39;101958.75;4769188;30;20036;-90
2023/09/02 15:17:10;;;;;;;14.40;13.10;;;;;;;35.46;39.02;101944.63;4754575;30;20103;-90
2023/09/02 15:19:41;;;;;;;14.88;13.38;;;;;;;35.78;38.78;101949.50;4769446;30;20047;-90
2023/09/02 15:22:11;;;;;;;14.43;13.07;;;;;;;37.21;36.91;101951.28;4770016;30;20039;-90
2023/09/02 15:24:43;;;;;;;14.20;12.80;;;;;;;37.05;37.62;101959.84;4769119;30;20052;-90
2023/09/02 15:27:20;;;;;;;13.53;12.33;;;;;;;36.00;37.30;101953.72;4770863;30;20052;-90
2023/09/02 15:30:14;;;;;;;14.32;11.75;;;;;;;35.30;41.74;101961.50;4786667;29;20493;-90
2023/09/02 15:32:55;;;;;;;12.82;11.10;;;;;;;34.15;42.17;101954.22;4789577;29;20469;-90
2023/09/02 15:35:39;;;;;;;11.85;9.80;;;;;;;34.62;42.33;101962.22;4791914;29;20478;-90
2023/09/02 15:38:22;;;;;;;;;;;;;;;;;;;;;
2023/09/02 15:41:01;;;;;;;12.03;10.90;;;;;;;37.97;36.07;101961.22;4773908;30;20043;-91
2023/09/02 15:43:34;;;;;;;11.45;10.35;;;;;;;39.29;32.31;101964.41;4758053;30;20066;-91
2023/09/02 15:46:04;;;;;;;12.02;10.90;;;;;;;39.81;31.01;101951.19;4743116;30;20035;-90
2023/09/02 15:48:29;;;;;;;13.45;12.15;;;;;;;40.52;29.21;101960.69;4757067;30;20042;-90
2023/09/02 15:50:58;;;;;;;11.40;10.40;;;;;;;40.97;29.04;101966.22;4771626;30;20477;-91
2023/09/02 15:53:28;;;;;;;13.75;10.05;;;;;;;41.19;28.64;101967.97;4787444;29;20082;-90
2023/09/02 15:55:56;;;;;;;11.70;10.68;;;;;;;41.25;27.83;101961.84;4775172;30;20096;-90
2023/09/02 15:58:24;;;;;;;11.23;10.18;;;;;;;41.83;27.66;101957.13;4789512;29;20512;-91
2023/09/02 16:00:52;;;;;;;11.23;10.23;;;;;;;41.90;27.58;101962.81;4789995;29;20070;-91
2023/09/02 16:03:20;;;;;;;12.30;10.90;;;;;;;41.79;27.55;101962.03;4790634;29;20039;-89
2023/09/02 16:05:51;;;;;;;12.52;11.48;;;;;;;41.58;27.94;101965.63;4789890;30;20075;-89
2023/09/02 16:08:17;;;;;;;13.23;12.10;;;;;;;41.80;27.79;101957.94;4790047;29;20070;-88
2023/09/02 16:10:45;;;;;;;13.93;12.52;;;;;;;41.38;27.95;101969.66;4804363;29;20035;-88
2023/09/02 16:13:14;;;;;;;12.83;11.63;;;;;;;41.43;28.20;101968.47;4789137;29;20046;-88
2023/09/02 16:15:39;;;;;;;12.65;11.57;;;;;;;40.39;29.00;101965.06;4789137;29;20066;-89
2023/09/02 16:18:05;;;;;;;12.40;11.30;;;;;;;39.76;29.64;101956.38;4789054;29;20075;-90
2023/09/02 16:20:42;;;;;;;12.80;11.65;;;;;;;39.27;30.09;101955.47;4773019;29;20034;-89
2023/09/02 16:23:07;;;;;;;11.60;10.60;;;;;;;38.98;30.57;101965.59;4781918;30;20159;-89
2023/09/02 16:25:35;;;;;;;11.33;10.33;;;;;;;38.83;31.24;101962.59;4798979;29;20130;-91
2023/09/02 16:28:12;;;;;;;11.82;10.82;;;;;;;38.42;31.04;101966.03;4770837;30;20048;-89
2023/09/02 16:30:40;;;;;;;10.73;9.77;;;;;;;37.67;32.48;101976.84;4749363;30;20040;-88
2023/09/02 16:33:08;;;;;;;11.83;10.70;;;;;;;36.36;35.21;101977.22;4796615;29;20042;-89
2023/09/02 16:35:38;;;;;;;11.57;10.48;;;;;;;35.90;35.70;101976.84;4793400;29;20041;-88
2023/09/02 16:38:04;;;;;;;11.90;10.85;;;;;;;34.74;38.25;101972.66;4746358;30;20040;-88
2023/09/02 16:40:32;;;;;;;11.83;10.67;;;;;;;33.92;39.40;101980.00;4775843;30;20038;-89
2023/09/02 16:42:58;;;;;;;14.70;13.30;;;;;;;33.08;40.62;101986.53;4770171;30;20048;-89
2023/09/02 16:45:27;;;;;;;13.88;12.10;;;;;;;32.31;42.72;101984.66;4807189;29;20039;-89
2023/09/02 16:47:55;;;;;;;14.30;12.90;;;;;;;31.78;44.09;101991.59;4797468;29;20050;-88
2023/09/02 16:50:21;;;;;;;13.20;11.80;;;;;;;31.39;45.33;101990.63;4785288;30;20032;-90
2023/09/02 16:52:51;;;;;;;14.05;12.65;;;;;;;30.89;47.19;101983.50;4800168;29;20461;-89
2023/09/02 16:55:24;;;;;;;14.20;12.90;;;;;;;30.53;47.68;101982.59;4803731;29;20035;-88
2023/09/02 16:57:54;;;;;;;15.17;12.67;;;;;;;30.14;49.74;101998.19;4803578;29;20035;-88
2023/09/02 17:00:31;;;;;;;13.88;12.23;;;;;;;29.75;50.91;102003.38;4788555;29;20078;-88
2023/09/02 17:02:59;;;;;;;14.60;13.10;;;;;;;29.46;51.97;101992.63;4788608;30;20545;-88
2023/09/02 17:05:26;;;;;;;14.05;12.63;;;;;;;29.15;52.55;101993.31;4803392;29;20932;-88
2023/09/02 17:07:53;;;;;;;14.77;13.38;;;;;;;28.76;53.66;101991.13;4788648;30;20039;-90
2023/09/02 17:10:32;;;;;;;13.83;12.53;;;;;;;28.68;54.52;101987.09;4803598;29;20033;-89
2023/09/02 17:12:58;;;;;;;14.95;13.48;;;;;;;28.35;55.19;101988.00;4788851;29;20036;-90